createdAt,value
2018-05-31T00:02:00.330Z,7.13
2018-05-31T00:04:28.823Z,6.97
2018-05-31T00:06:56.945Z,7.17
2018-05-31T00:09:25.657Z,7.00
2018-05-31T00:11:55.117Z,6.77
2018-05-31T00:14:23.857Z,7.67
2018-05-31T00:16:53.150Z,6.90
2018-05-31T00:19:22.553Z,7.47
2018-05-31T00:21:51.605Z,7.37
2018-05-31T00:24:20.642Z,7.00
2018-05-31T00:26:48.741Z,7.73
2018-05-31T00:29:17.329Z,6.50
2018-05-31T00:31:45.505Z,6.87
2018-05-31T00:34:14.664Z,6.90
2018-05-31T00:36:43.167Z,7.93
2018-05-31T00:39:11.797Z,8.23
2018-05-31T00:41:40.230Z,7.47
2018-05-31T00:44:09.270Z,7.50
2018-05-31T00:46:37.984Z,7.23
2018-05-31T00:49:06.213Z,7.37
2018-05-31T00:51:34.460Z,7.40
2018-05-31T00:54:02.704Z,7.00
2018-05-31T00:56:30.803Z,7.07
2018-05-31T00:58:58.893Z,7.20
2018-05-31T01:01:27.167Z,7.43
2018-05-31T01:03:55.610Z,7.07
2018-05-31T01:06:23.705Z,6.83
2018-05-31T01:08:51.873Z,6.90
2018-05-31T01:11:20.065Z,7.70
2018-05-31T01:13:48.341Z,7.57
2018-05-31T01:16:16.472Z,7.13
2018-05-31T01:18:45.369Z,7.77
2018-05-31T01:21:13.480Z,8.17
2018-05-31T01:23:41.602Z,8.20
2018-05-31T01:26:09.822Z,9.30
2018-05-31T01:28:37.982Z,7.43
2018-05-31T01:31:05.992Z,7.63
2018-05-31T01:33:34.189Z,7.30
2018-05-31T01:36:02.505Z,8.70
2018-05-31T01:38:32.532Z,7.47
2018-05-31T01:41:00.808Z,7.33
2018-05-31T01:43:29.212Z,8.27
2018-05-31T01:45:57.897Z,8.20
2018-05-31T01:48:26.072Z,7.57
2018-05-31T01:50:54.276Z,8.40
2018-05-31T01:53:22.433Z,8.03
2018-05-31T01:55:50.554Z,8.23
2018-05-31T01:58:18.842Z,7.87
2018-05-31T02:00:47.038Z,7.87
2018-05-31T02:03:15.160Z,7.90
2018-05-31T02:05:45.265Z,7.10
2018-05-31T02:08:14.386Z,7.57
2018-05-31T02:10:42.613Z,7.93
2018-05-31T02:13:10.697Z,8.53
2018-05-31T02:15:39.065Z,16.90
2018-05-31T02:18:07.246Z,23.07
2018-05-31T02:20:35.301Z,23.57
2018-05-31T02:23:03.636Z,23.00
2018-05-31T02:25:31.983Z,25.07
2018-05-31T02:28:01.872Z,21.73
2018-05-31T02:30:30.181Z,17.87
2018-05-31T02:32:58.490Z,24.77
2018-05-31T02:35:26.690Z,22.50
2018-05-31T02:37:54.778Z,21.37
2018-05-31T02:40:23.976Z,15.50
2018-05-31T02:42:52.412Z,17.13
2018-05-31T02:45:21.018Z,18.10
2018-05-31T02:47:49.294Z,15.40
2018-05-31T02:50:17.804Z,13.30
2018-05-31T02:52:45.925Z,10.60
2018-05-31T02:55:16.048Z,9.33
2018-05-31T02:57:44.709Z,8.60
2018-05-31T03:00:13.006Z,8.77
2018-05-31T03:02:41.521Z,8.77
2018-05-31T03:05:09.793Z,9.40
2018-05-31T03:07:37.998Z,8.90
2018-05-31T03:10:06.568Z,9.07
2018-05-31T03:12:35.434Z,9.27
2018-05-31T03:15:03.847Z,9.00
2018-05-31T03:17:32.203Z,8.67
2018-05-31T03:20:01.401Z,8.17
2018-05-31T03:22:29.604Z,8.13
2018-05-31T03:24:58.111Z,8.33
2018-05-31T03:27:26.587Z,8.13
2018-05-31T03:29:56.183Z,7.47
2018-05-31T03:32:28.226Z,8.40
2018-05-31T03:34:56.636Z,8.60
2018-05-31T03:37:28.688Z,7.73
2018-05-31T03:39:57.075Z,7.70
2018-05-31T03:42:25.304Z,8.10
2018-05-31T03:44:53.479Z,7.90
2018-05-31T03:47:21.826Z,7.97
2018-05-31T03:49:50.348Z,7.60
2018-05-31T03:52:19.348Z,7.63
2018-05-31T03:54:47.718Z,8.23
2018-05-31T03:57:16.726Z,8.70
2018-05-31T03:59:45.130Z,8.07
2018-05-31T04:02:13.573Z,7.47
2018-05-31T04:04:42.013Z,7.60
2018-05-31T04:07:10.618Z,8.10
2018-05-31T04:09:38.779Z,7.97
2018-05-31T04:12:07.049Z,8.27
2018-05-31T04:14:35.195Z,8.13
2018-05-31T04:17:03.720Z,8.33
2018-05-31T04:19:31.925Z,7.77
2018-05-31T04:22:00.820Z,8.37
2018-05-31T04:24:29.814Z,7.80
2018-05-31T04:26:58.092Z,8.17
2018-05-31T04:29:26.430Z,8.70
2018-05-31T04:31:55.521Z,8.63
2018-05-31T04:34:24.220Z,8.03
2018-05-31T04:36:53.488Z,8.80
2018-05-31T04:39:22.384Z,9.30
2018-05-31T04:41:51.563Z,9.67
2018-05-31T04:44:19.753Z,9.40
2018-05-31T04:46:48.640Z,9.03
2018-05-31T04:49:17.115Z,8.50
2018-05-31T04:51:45.572Z,8.93
2018-05-31T04:54:14.200Z,8.40
2018-05-31T04:56:42.300Z,9.33
2018-05-31T04:59:11.685Z,8.70
2018-05-31T05:01:40.594Z,9.00
2018-05-31T05:04:09.794Z,8.77
2018-05-31T05:06:38.942Z,8.43
2018-05-31T05:09:07.990Z,8.90
2018-05-31T05:11:36.466Z,9.53
2018-05-31T05:14:05.498Z,8.80
2018-05-31T05:16:33.783Z,8.73
2018-05-31T05:19:02.163Z,8.07
2018-05-31T05:21:30.604Z,9.00
2018-05-31T05:23:58.802Z,9.30
2018-05-31T05:26:26.940Z,8.60
2018-05-31T05:28:55.808Z,8.07
2018-05-31T05:31:24.127Z,8.67
2018-05-31T05:33:53.407Z,9.60
2018-05-31T05:36:22.387Z,9.30
2018-05-31T05:38:50.607Z,9.80
2018-05-31T05:41:19.464Z,8.30
2018-05-31T05:43:47.677Z,8.77
2018-05-31T05:46:16.099Z,9.43
2018-05-31T05:48:45.063Z,8.97
2018-05-31T05:51:13.244Z,8.60
2018-05-31T05:53:41.588Z,8.50
2018-05-31T05:56:09.877Z,9.40
2018-05-31T05:58:38.779Z,9.70
2018-05-31T06:01:06.903Z,9.83
2018-05-31T06:03:34.990Z,9.57
2018-05-31T06:06:03.452Z,10.43
2018-05-31T06:08:31.635Z,9.83
2018-05-31T06:10:59.847Z,9.97
2018-05-31T06:13:28.017Z,10.27
2018-05-31T06:15:56.786Z,9.43
2018-05-31T06:18:25.133Z,10.53
2018-05-31T06:20:53.375Z,9.80
2018-05-31T06:23:21.856Z,9.37
2018-05-31T06:25:51.549Z,9.23
2018-05-31T06:28:20.820Z,9.57
2018-05-31T06:30:49.145Z,10.03
2018-05-31T06:33:17.532Z,9.83
2018-05-31T06:35:46.035Z,10.43
2018-05-31T06:38:15.006Z,10.10
2018-05-31T06:40:44.010Z,9.60
2018-05-31T06:43:13.092Z,9.67
2018-05-31T06:45:42.642Z,9.83
2018-05-31T06:48:11.046Z,9.70
2018-05-31T06:50:39.677Z,8.97
2018-05-31T06:53:08.875Z,10.17
2018-05-31T06:55:37.162Z,9.43
2018-05-31T06:58:05.601Z,9.40
2018-05-31T07:00:33.932Z,9.03
2018-05-31T07:03:02.369Z,9.03
2018-05-31T07:05:30.794Z,8.80
2018-05-31T07:07:59.169Z,9.03
2018-05-31T07:10:28.018Z,9.30
2018-05-31T07:12:58.140Z,8.23
2018-05-31T07:15:26.508Z,7.97
2018-05-31T07:17:55.182Z,8.43
2018-05-31T07:20:23.751Z,7.50
2018-05-31T07:22:51.934Z,8.10
2018-05-31T07:25:20.199Z,8.67
2018-05-31T07:27:48.797Z,8.20
2018-05-31T07:30:16.956Z,8.33
2018-05-31T07:32:45.341Z,8.17
2018-05-31T07:35:13.614Z,8.67
2018-05-31T07:37:41.855Z,8.80
2018-05-31T07:40:10.055Z,9.17
2018-05-31T07:42:38.282Z,8.60
2018-05-31T07:45:07.462Z,8.97
2018-05-31T07:47:36.590Z,9.27
2018-05-31T07:50:05.624Z,9.77
2018-05-31T07:52:35.135Z,9.33
2018-05-31T07:55:03.573Z,9.07
2018-05-31T07:57:32.709Z,8.47
2018-05-31T08:00:00.877Z,9.20
2018-05-31T08:02:29.115Z,8.87
2018-05-31T08:04:57.538Z,9.73
2018-05-31T08:07:25.676Z,9.40
2018-05-31T08:09:54.537Z,8.50
2018-05-31T08:12:22.817Z,9.07
2018-05-31T08:14:51.871Z,8.80
2018-05-31T08:17:20.188Z,9.03
2018-05-31T08:19:49.358Z,9.50
2018-05-31T08:22:17.769Z,8.83
2018-05-31T08:24:46.621Z,10.20
2018-05-31T08:27:14.692Z,10.53
2018-05-31T08:29:43.282Z,10.57
2018-05-31T08:32:11.574Z,10.23
2018-05-31T08:34:40.211Z,10.37
2018-05-31T08:37:09.663Z,10.00
2018-05-31T08:39:39.164Z,10.47
2018-05-31T08:42:08.058Z,10.37
2018-05-31T08:44:37.308Z,10.50
2018-05-31T08:47:05.870Z,9.77
2018-05-31T08:49:34.300Z,10.97
2018-05-31T08:52:02.413Z,10.63
2018-05-31T08:54:30.593Z,10.43
2018-05-31T08:56:59.144Z,8.77
2018-05-31T08:59:28.617Z,8.87
2018-05-31T09:01:57.707Z,8.97
2018-05-31T09:04:25.883Z,8.67
2018-05-31T09:06:54.145Z,8.50
2018-05-31T09:09:22.466Z,9.07
2018-05-31T09:11:50.626Z,8.00
2018-05-31T09:14:18.914Z,8.00
2018-05-31T09:16:48.076Z,7.73
2018-05-31T09:19:16.883Z,8.90
2018-05-31T09:21:45.142Z,8.50
2018-05-31T09:24:13.375Z,8.30
2018-05-31T09:26:41.624Z,8.67
2018-05-31T09:29:10.598Z,8.83
2018-05-31T09:31:39.129Z,8.20
2018-05-31T09:34:07.373Z,8.67
2018-05-31T09:36:35.723Z,8.73
2018-05-31T09:39:05.028Z,8.30
2018-05-31T09:41:35.019Z,8.77
2018-05-31T09:44:03.072Z,8.70
2018-05-31T09:46:31.418Z,9.07
2018-05-31T09:48:59.537Z,8.67
2018-05-31T09:51:27.914Z,8.70
2018-05-31T09:53:56.271Z,8.47
2018-05-31T09:56:24.411Z,8.50
2018-05-31T09:58:53.361Z,8.60
2018-05-31T10:01:21.838Z,8.27
2018-05-31T10:03:50.233Z,8.27
2018-05-31T10:06:19.003Z,8.80
2018-05-31T10:08:47.390Z,8.60
2018-05-31T10:11:16.127Z,7.83
2018-05-31T10:13:45.424Z,7.97
2018-05-31T10:16:13.941Z,7.33
2018-05-31T10:18:42.514Z,6.30
2018-05-31T10:21:10.724Z,6.53
2018-05-31T10:23:38.890Z,5.87
2018-05-31T10:26:07.746Z,7.27
2018-05-31T10:28:35.994Z,6.70
2018-05-31T10:31:04.065Z,6.90
2018-05-31T10:33:34.485Z,7.00
2018-05-31T10:36:04.388Z,7.47
2018-05-31T10:38:33.349Z,7.13
2018-05-31T10:41:01.748Z,6.93
2018-05-31T10:43:29.937Z,6.87
2018-05-31T10:45:58.276Z,6.53
2018-05-31T10:48:26.609Z,6.37
2018-05-31T10:50:54.888Z,6.90
2018-05-31T10:53:22.988Z,6.87
2018-05-31T10:55:51.489Z,7.07
2018-05-31T10:58:20.002Z,7.60
2018-05-31T11:00:48.787Z,7.60
2018-05-31T11:03:17.149Z,7.47
2018-05-31T11:05:45.739Z,7.23
2018-05-31T11:08:13.878Z,7.53
2018-05-31T11:10:42.006Z,6.63
2018-05-31T11:13:10.364Z,7.07
2018-05-31T11:15:38.757Z,6.93
2018-05-31T11:18:07.840Z,7.00
2018-05-31T11:20:35.897Z,7.00
2018-05-31T11:23:04.416Z,7.70
2018-05-31T11:25:32.833Z,7.03
2018-05-31T11:28:01.276Z,7.07
2018-05-31T11:30:29.541Z,6.70
2018-05-31T11:32:57.745Z,7.07
2018-05-31T11:35:26.120Z,7.77
2018-05-31T11:37:54.481Z,6.90
2018-05-31T11:40:22.588Z,7.27
2018-05-31T11:42:50.898Z,6.90
2018-05-31T11:45:20.489Z,6.33
2018-05-31T11:47:49.091Z,8.03
2018-05-31T11:50:17.461Z,6.60
2018-05-31T11:52:45.707Z,6.57
2018-05-31T11:55:13.819Z,6.57
2018-05-31T11:57:42.954Z,6.77
2018-05-31T12:00:10.980Z,5.43
2018-05-31T12:02:39.197Z,4.70
2018-05-31T12:05:08.209Z,7.00
2018-05-31T12:07:36.415Z,7.40
2018-05-31T12:10:06.131Z,7.90
2018-05-31T12:12:34.494Z,8.13
2018-05-31T12:15:02.857Z,8.10
2018-05-31T12:17:31.001Z,6.33
2018-05-31T12:19:59.547Z,6.07
2018-05-31T12:22:27.918Z,5.97
2018-05-31T12:24:56.406Z,5.30
2018-05-31T12:27:24.593Z,5.97
2018-05-31T12:29:53.169Z,5.70
2018-05-31T12:32:21.359Z,6.00
2018-05-31T12:34:50.108Z,5.30
2018-05-31T12:37:18.223Z,6.20
2018-05-31T12:39:47.141Z,6.03
2018-05-31T12:42:15.517Z,6.20
2018-05-31T12:44:43.863Z,5.20
2018-05-31T12:47:13.950Z,5.80
2018-05-31T12:49:42.909Z,6.10
2018-05-31T12:52:11.322Z,5.07
2018-05-31T12:54:39.488Z,5.17
2018-05-31T12:57:07.639Z,6.17
2018-05-31T12:59:35.930Z,6.70
2018-05-31T13:02:04.253Z,6.13
2018-05-31T13:04:32.381Z,5.00
2018-05-31T13:07:01.601Z,4.10
2018-05-31T13:09:30.979Z,4.23
2018-05-31T13:11:59.531Z,4.40
2018-05-31T13:14:29.684Z,4.80
2018-05-31T13:16:58.779Z,4.73
2018-05-31T13:19:27.842Z,4.87
2018-05-31T13:21:56.150Z,4.17
2018-05-31T13:24:24.655Z,4.03
2018-05-31T13:26:53.853Z,4.07
2018-05-31T13:29:23.119Z,3.87
2018-05-31T13:31:51.248Z,4.10
2018-05-31T13:34:19.376Z,3.40
2018-05-31T13:36:48.354Z,3.37
2018-05-31T13:39:16.798Z,3.53
2018-05-31T13:41:45.357Z,4.00
2018-05-31T13:44:14.609Z,3.70
2018-05-31T13:46:43.321Z,4.30
2018-05-31T13:49:12.339Z,4.73
2018-05-31T13:51:40.753Z,4.50
2018-05-31T13:54:09.368Z,5.20
2018-05-31T13:56:38.020Z,5.47
2018-05-31T13:59:07.201Z,5.50
2018-05-31T14:01:35.855Z,5.63
2018-05-31T14:04:04.495Z,5.67
2018-05-31T14:06:32.763Z,5.60
2018-05-31T14:09:01.666Z,5.40
2018-05-31T14:11:29.775Z,5.43
2018-05-31T14:13:59.005Z,6.70
2018-05-31T14:16:27.227Z,5.53
2018-05-31T14:18:55.394Z,5.53
2018-05-31T14:21:24.599Z,5.07
2018-05-31T14:23:52.785Z,4.90
2018-05-31T14:26:22.009Z,23.23
2018-05-31T14:28:50.489Z,12.73
2018-05-31T14:31:18.912Z,5.97
2018-05-31T14:33:47.170Z,5.13
2018-05-31T14:36:15.327Z,4.90
2018-05-31T14:38:44.371Z,4.27
2018-05-31T14:41:13.300Z,4.80
2018-05-31T14:43:41.640Z,4.77
2018-05-31T14:46:09.828Z,5.03
2018-05-31T14:48:39.085Z,6.03
2018-05-31T14:51:09.452Z,5.80
2018-05-31T14:53:37.993Z,5.77
2018-05-31T14:56:06.337Z,5.80
2018-05-31T14:58:34.800Z,4.90
2018-05-31T15:01:03.877Z,4.90
2018-05-31T15:03:33.242Z,5.07
2018-05-31T15:06:01.775Z,4.53
2018-05-31T15:08:30.042Z,4.70
2018-05-31T15:10:58.337Z,4.60
2018-05-31T15:13:27.246Z,4.80
2018-05-31T15:15:55.588Z,4.73
2018-05-31T15:18:24.851Z,4.63
2018-05-31T15:20:53.076Z,4.30
2018-05-31T15:23:21.366Z,4.40
2018-05-31T15:25:49.456Z,4.80
2018-05-31T15:28:18.536Z,4.73
2018-05-31T15:30:46.765Z,4.80
2018-05-31T15:33:16.796Z,4.80
2018-05-31T15:35:45.728Z,4.87
2018-05-31T15:38:14.514Z,6.13
2018-05-31T15:40:43.028Z,6.50
2018-05-31T15:43:11.525Z,6.50
2018-05-31T15:45:40.063Z,6.60
2018-05-31T15:48:08.458Z,6.20
2018-05-31T15:50:37.549Z,6.53
2018-05-31T15:53:05.711Z,6.47
2018-05-31T15:55:34.340Z,6.80
2018-05-31T15:58:02.692Z,6.20
2018-05-31T16:00:31.153Z,6.90
2018-05-31T16:02:59.597Z,7.00
2018-05-31T16:05:27.833Z,6.80
2018-05-31T16:07:56.227Z,6.23
2018-05-31T16:10:24.404Z,6.30
2018-05-31T16:12:53.530Z,6.30
2018-05-31T16:15:22.629Z,6.33
2018-05-31T16:17:51.072Z,6.27
2018-05-31T16:20:19.713Z,6.27
2018-05-31T16:22:48.039Z,6.57
2018-05-31T16:25:16.622Z,5.77
2018-05-31T16:27:45.646Z,5.73
2018-05-31T16:30:14.185Z,5.43
2018-05-31T16:32:42.281Z,5.13
2018-05-31T16:35:11.190Z,4.47
2018-05-31T16:37:39.517Z,5.00
2018-05-31T16:40:08.480Z,4.90
2018-05-31T16:42:36.543Z,4.53
2018-05-31T16:45:04.800Z,4.43
2018-05-31T16:47:34.026Z,4.17
2018-05-31T16:50:02.205Z,4.27
2018-05-31T16:52:30.421Z,3.87
2018-05-31T16:54:58.955Z,3.50
2018-05-31T16:57:27.165Z,3.57
2018-05-31T16:59:55.349Z,3.90
2018-05-31T17:02:24.441Z,3.77
2018-05-31T17:04:53.572Z,3.60
2018-05-31T17:07:22.011Z,3.30
2018-05-31T17:09:51.160Z,3.40
2018-05-31T17:12:19.348Z,3.03
2018-05-31T17:14:48.439Z,2.93
2018-05-31T17:17:19.879Z,3.20
2018-05-31T17:19:48.888Z,3.07
2018-05-31T17:22:17.919Z,3.10
2018-05-31T17:24:46.304Z,2.97
2018-05-31T17:27:15.794Z,3.10
2018-05-31T17:29:44.963Z,3.83
2018-05-31T17:32:13.185Z,3.57
2018-05-31T17:34:42.233Z,3.20
2018-05-31T17:37:11.341Z,3.20
2018-05-31T17:39:39.764Z,3.13
2018-05-31T17:42:07.965Z,3.20
2018-05-31T17:44:36.495Z,3.30
2018-05-31T17:47:06.352Z,3.77
2018-05-31T17:49:34.865Z,3.20
2018-05-31T17:52:03.428Z,3.50
2018-05-31T17:54:31.601Z,2.90
2018-05-31T17:57:00.958Z,3.50
2018-05-31T17:59:29.339Z,3.27
2018-05-31T18:01:58.331Z,3.10
2018-05-31T18:04:26.921Z,3.17
2018-05-31T18:06:55.309Z,2.93
2018-05-31T18:09:23.621Z,3.07
2018-05-31T18:11:52.140Z,3.13
2018-05-31T18:14:21.966Z,3.00
2018-05-31T18:16:51.192Z,3.03
2018-05-31T18:19:19.675Z,3.37
2018-05-31T18:21:47.819Z,3.33
2018-05-31T18:24:16.144Z,3.30
2018-05-31T18:26:45.154Z,3.47
2018-05-31T18:29:14.174Z,3.40
2018-05-31T18:31:42.445Z,3.50
2018-05-31T18:34:11.341Z,3.40
2018-05-31T18:36:40.179Z,3.30
2018-05-31T18:39:11.021Z,3.20
2018-05-31T18:41:39.187Z,3.57
2018-05-31T18:44:07.360Z,2.87
2018-05-31T18:46:35.944Z,3.03
2018-05-31T18:49:04.607Z,3.20
2018-05-31T18:51:33.062Z,3.80
2018-05-31T18:54:02.228Z,3.27
2018-05-31T18:56:31.064Z,3.60
2018-05-31T18:59:00.516Z,3.43
2018-05-31T19:01:30.119Z,3.47
2018-05-31T19:04:00.452Z,3.40
2018-05-31T19:06:29.073Z,3.77
2018-05-31T19:08:57.448Z,3.60
2018-05-31T19:11:26.425Z,3.87
2018-05-31T19:13:58.463Z,3.70
2018-05-31T19:16:26.580Z,3.60
2018-05-31T19:18:59.139Z,3.60
2018-05-31T19:21:28.422Z,3.60
2018-05-31T19:24:01.134Z,3.83
2018-05-31T19:26:29.845Z,3.30
2018-05-31T19:28:58.153Z,3.97
2018-05-31T19:31:26.586Z,4.50
2018-05-31T19:33:54.653Z,4.20
2018-05-31T19:36:28.612Z,4.53
2018-05-31T19:38:56.827Z,4.27
2018-05-31T19:41:26.014Z,4.10
2018-05-31T19:44:58.559Z,4.70
2018-05-31T19:47:26.617Z,5.03
2018-05-31T19:49:54.942Z,4.10
2018-05-31T19:54:33.545Z,4.20
2018-05-31T19:57:02.107Z,4.30
2018-05-31T20:01:42.173Z,4.23
2018-05-31T20:04:11.193Z,3.87
2018-05-31T20:06:40.121Z,3.80
2018-05-31T20:09:08.442Z,4.10
2018-05-31T20:11:37.508Z,3.97
2018-05-31T20:14:05.704Z,4.23
2018-05-31T20:16:33.859Z,3.87
2018-05-31T20:19:02.305Z,4.00
2018-05-31T20:21:31.330Z,4.40
2018-05-31T20:23:59.521Z,4.50
2018-05-31T20:26:28.389Z,3.83
2018-05-31T20:28:56.977Z,4.40
2018-05-31T20:31:25.152Z,4.40
2018-05-31T20:33:53.872Z,4.50
2018-05-31T20:36:22.293Z,4.93
2018-05-31T20:38:50.517Z,4.83
2018-05-31T20:41:18.763Z,4.90
2018-05-31T20:43:47.045Z,4.93
2018-05-31T20:46:15.620Z,4.83
2018-05-31T20:48:44.108Z,4.50
2018-05-31T20:51:12.260Z,4.80
2018-05-31T20:53:40.332Z,4.67
2018-05-31T20:56:08.795Z,4.63
2018-05-31T20:58:37.836Z,4.70
2018-05-31T21:01:06.167Z,5.07
2018-05-31T21:03:34.617Z,4.73
2018-05-31T21:06:03.041Z,4.27
2018-05-31T21:08:31.344Z,4.43
2018-05-31T21:10:59.778Z,4.67
2018-05-31T21:13:28.245Z,5.03
2018-05-31T21:15:57.566Z,4.97
2018-05-31T21:18:26.492Z,5.63
2018-05-31T21:20:55.616Z,5.00
2018-05-31T21:23:24.642Z,7.20
2018-05-31T21:25:53.117Z,6.20
2018-05-31T21:28:22.248Z,6.20
2018-05-31T21:30:51.584Z,4.70
2018-05-31T21:33:19.867Z,5.80
2018-05-31T21:35:49.034Z,5.30
2018-05-31T21:38:17.401Z,5.93
2018-05-31T21:40:45.591Z,5.47
2018-05-31T21:43:14.048Z,5.70
2018-05-31T21:45:43.322Z,5.00
2018-05-31T21:48:11.628Z,5.40
2018-05-31T21:50:39.938Z,5.50
2018-05-31T21:53:08.260Z,5.43
2018-05-31T21:55:36.602Z,6.20
2018-05-31T21:58:04.869Z,5.67
2018-05-31T22:00:37.876Z,5.97
2018-05-31T22:03:07.182Z,5.87
2018-05-31T22:05:36.175Z,6.20
2018-05-31T22:08:04.546Z,6.33
2018-05-31T22:10:33.800Z,5.43
2018-05-31T22:13:02.447Z,5.57
2018-05-31T22:15:30.655Z,5.63
2018-05-31T22:17:58.905Z,5.70
2018-05-31T22:20:27.358Z,5.83
2018-05-31T22:22:55.852Z,5.43
2018-05-31T22:25:24.539Z,5.40
2018-05-31T22:27:55.067Z,5.20
2018-05-31T22:30:23.344Z,5.80
2018-05-31T22:32:51.723Z,5.67
2018-05-31T22:35:20.237Z,5.80
2018-05-31T22:37:48.660Z,6.43
2018-05-31T22:40:17.534Z,5.60
2018-05-31T22:42:46.009Z,10.93
2018-05-31T22:45:14.667Z,7.30
2018-05-31T22:47:43.570Z,5.97
2018-05-31T22:50:11.665Z,5.97
2018-05-31T22:52:39.884Z,6.27
2018-05-31T22:55:08.412Z,6.10
2018-05-31T22:57:37.080Z,6.80
2018-05-31T23:00:05.647Z,6.53
2018-05-31T23:02:33.907Z,7.10
2018-05-31T23:05:05.180Z,6.33
2018-05-31T23:07:33.479Z,6.33
2018-05-31T23:10:01.781Z,6.27
2018-05-31T23:12:30.711Z,6.67
2018-05-31T23:14:59.448Z,6.50
2018-05-31T23:17:28.337Z,6.13
2018-05-31T23:19:57.520Z,6.43
2018-05-31T23:22:25.860Z,6.93
2018-05-31T23:24:54.166Z,6.63
2018-05-31T23:27:22.439Z,6.70
2018-05-31T23:29:51.378Z,6.67
2018-05-31T23:32:19.732Z,6.40
2018-05-31T23:34:48.983Z,6.10
2018-05-31T23:37:18.091Z,6.23
2018-05-31T23:39:46.282Z,6.10
2018-05-31T23:42:14.603Z,6.17
2018-05-31T23:44:42.921Z,6.57
2018-05-31T23:47:11.318Z,6.10
2018-05-31T23:49:39.711Z,6.90
2018-05-31T23:52:07.880Z,6.50
2018-05-31T23:54:36.833Z,6.77
2018-05-31T23:57:05.240Z,6.80
2018-05-31T23:59:35.033Z,6.67
